createdAt,value
2019-04-11T00:01:18.351Z,145.23
2019-04-11T00:03:49.361Z,139.83
2019-04-11T00:06:19.548Z,145.17
2019-04-11T00:08:50.154Z,125.47
2019-04-11T00:11:20.312Z,136.00
2019-04-11T00:13:51.467Z,139.50
2019-04-11T00:16:21.892Z,139.40
2019-04-11T00:18:53.228Z,136.93
2019-04-11T00:21:23.146Z,141.80
2019-04-11T00:23:52.529Z,144.00
2019-04-11T00:26:22.693Z,140.60
2019-04-11T00:28:52.088Z,156.40
2019-04-11T00:31:21.475Z,149.90
2019-04-11T00:33:51.838Z,144.77
2019-04-11T00:36:24.217Z,136.00
2019-04-11T00:38:55.178Z,147.57
2019-04-11T00:41:25.977Z,143.60
2019-04-11T00:43:56.687Z,131.50
2019-04-11T00:46:26.606Z,139.03
2019-04-11T00:48:57.710Z,139.53
2019-04-11T00:51:29.840Z,129.12
2019-04-11T00:54:00.576Z,152.50
2019-04-11T00:56:30.457Z,132.80
2019-04-11T00:59:02.363Z,137.10
2019-04-11T01:01:35.709Z,132.23
2019-04-11T01:04:05.413Z,148.45
2019-04-11T01:06:36.497Z,142.40
2019-04-11T01:09:08.301Z,137.50
2019-04-11T01:11:40.394Z,149.20
2019-04-11T01:14:10.312Z,137.50
2019-04-11T01:16:50.932Z,135.63
2019-04-11T01:19:20.531Z,140.93
2019-04-11T01:21:51.509Z,140.70
2019-04-11T01:24:23.927Z,137.90
2019-04-11T01:26:53.872Z,125.70
2019-04-11T01:29:27.227Z,135.45
2019-04-11T01:32:02.267Z,139.17
2019-04-11T01:34:32.810Z,147.73
2019-04-11T01:37:03.793Z,146.67
2019-04-11T01:40:11.791Z,142.53
2019-04-11T01:42:41.807Z,135.13
2019-04-11T01:45:13.514Z,141.45
2019-04-11T01:48:04.418Z,136.13
2019-04-11T01:50:35.324Z,123.90
2019-04-11T01:53:05.178Z,118.33
2019-04-11T01:55:36.649Z,120.90
2019-04-11T01:58:07.020Z,107.40
2019-04-11T02:00:56.813Z,102.40
2019-04-11T02:03:41.749Z,82.57
2019-04-11T02:06:11.825Z,71.30
2019-04-11T02:08:41.777Z,62.50
2019-04-11T02:11:12.940Z,57.10
2019-04-11T02:13:43.829Z,52.27
2019-04-11T02:16:13.246Z,53.35
2019-04-11T02:18:43.610Z,45.30
2019-04-11T02:21:13.611Z,41.90
2019-04-11T02:23:55.182Z,43.68
2019-04-11T02:26:29.278Z,48.17
2019-04-11T02:28:59.353Z,55.63
2019-04-11T02:31:30.628Z,49.00
2019-04-11T02:34:01.996Z,47.10
2019-04-11T02:36:32.213Z,46.77
2019-04-11T02:39:08.032Z,44.43
2019-04-11T02:41:35.751Z,42.07
2019-04-11T02:44:11.767Z,50.03
2019-04-11T02:46:47.883Z,42.83
2019-04-11T02:49:10.263Z,45.77
2019-04-11T02:51:40.204Z,41.30
2019-04-11T02:54:11.502Z,44.17
2019-04-11T02:56:43.586Z,42.30
2019-04-11T02:59:13.466Z,59.07
2019-04-11T03:01:43.993Z,49.13
2019-04-11T03:04:14.856Z,47.00
2019-04-11T03:06:47.786Z,44.93
2019-04-11T03:09:22.054Z,42.15
2019-04-11T03:11:52.649Z,44.33
2019-04-11T03:14:23.320Z,39.58
2019-04-11T03:17:03.681Z,39.30
2019-04-11T03:19:42.394Z,40.03
2019-04-11T03:21:57.160Z,40.73
2019-04-11T03:24:29.469Z,44.73
2019-04-11T03:27:04.118Z,41.65
2019-04-11T03:29:33.342Z,36.67
2019-04-11T03:32:42.061Z,35.73
2019-04-11T03:37:26.088Z,40.30
2019-04-11T03:40:02.434Z,39.00
2019-04-11T03:42:29.239Z,35.80
2019-04-11T03:44:47.294Z,37.60
2019-04-11T03:47:27.821Z,39.93
2019-04-11T03:49:51.840Z,43.87
2019-04-11T03:52:21.418Z,36.45
2019-04-11T03:54:51.671Z,40.00
2019-04-11T03:57:21.595Z,40.30
2019-04-11T03:59:52.033Z,38.48
2019-04-11T04:02:24.569Z,45.88
2019-04-11T04:04:54.711Z,39.17
2019-04-11T04:07:27.735Z,38.63
2019-04-11T04:09:58.617Z,44.10
2019-04-11T04:12:29.387Z,38.73
2019-04-11T04:15:29.939Z,38.53
2019-04-11T04:17:57.322Z,39.93
2019-04-11T04:20:59.752Z,45.30
2019-04-11T04:23:33.685Z,38.13
2019-04-11T04:26:06.217Z,38.63
2019-04-11T04:28:35.746Z,37.13
2019-04-11T04:31:09.134Z,41.53
2019-04-11T04:33:40.024Z,35.43
2019-04-11T04:36:10.892Z,42.00
2019-04-11T04:38:44.584Z,48.77
2019-04-11T04:41:27.933Z,39.03
2019-04-11T04:43:48.416Z,41.47
2019-04-11T04:46:34.467Z,38.77
2019-04-11T04:48:51.405Z,37.80
2019-04-11T04:51:24.245Z,38.70
2019-04-11T04:53:53.268Z,36.65
2019-04-11T04:56:28.396Z,39.83
2019-04-11T04:58:55.966Z,39.60
2019-04-11T05:01:26.581Z,39.67
2019-04-11T05:03:58.170Z,44.00
2019-04-11T05:06:29.146Z,60.13
2019-04-11T05:09:00.046Z,41.43
2019-04-11T05:11:30.684Z,34.07
2019-04-11T05:14:01.031Z,36.33
2019-04-11T05:16:31.521Z,45.20
2019-04-11T05:19:01.125Z,37.23
2019-04-11T05:21:31.602Z,37.73
2019-04-11T05:24:02.035Z,38.73
2019-04-11T05:26:31.489Z,41.00
2019-04-11T05:29:00.880Z,39.90
2019-04-11T05:31:32.259Z,36.23
2019-04-11T05:34:01.651Z,37.80
2019-04-11T05:36:32.148Z,41.83
2019-04-11T05:39:02.558Z,41.93
2019-04-11T05:41:33.825Z,40.27
2019-04-11T05:44:09.789Z,36.07
2019-04-11T05:46:49.158Z,39.50
2019-04-11T05:49:14.663Z,43.93
2019-04-11T05:52:00.493Z,40.43
2019-04-11T05:54:38.824Z,37.40
2019-04-11T05:57:07.327Z,42.90
2019-04-11T05:59:39.015Z,39.90
2019-04-11T06:02:45.688Z,38.83
2019-04-11T06:05:43.119Z,38.45
2019-04-11T06:08:21.116Z,45.43
2019-04-11T06:11:09.481Z,46.50
2019-04-11T06:14:05.753Z,39.50
2019-04-11T06:16:43.587Z,39.15
2019-04-11T06:19:30.490Z,40.10
2019-04-11T06:22:04.453Z,36.27
2019-04-11T06:24:52.362Z,39.10
2019-04-11T06:27:53.580Z,41.20
2019-04-11T06:30:40.818Z,35.73
2019-04-11T06:33:24.653Z,33.10
2019-04-11T06:36:26.655Z,40.40
2019-04-11T06:39:15.887Z,43.73
2019-04-11T06:42:13.365Z,43.10
2019-04-11T06:45:02.211Z,44.00
2019-04-11T06:47:53.449Z,40.57
2019-04-11T06:50:29.317Z,39.13
2019-04-11T06:53:00.225Z,41.57
2019-04-11T06:55:50.908Z,41.07
2019-04-11T06:58:29.779Z,38.80
2019-04-11T07:01:06.484Z,39.25
2019-04-11T07:03:42.295Z,37.57
2019-04-11T07:06:18.012Z,44.50
2019-04-11T07:08:59.035Z,38.10
2019-04-11T07:11:38.420Z,40.90
2019-04-11T07:14:22.455Z,37.17
2019-04-11T07:17:13.443Z,39.20
2019-04-11T07:20:02.456Z,40.23
2019-04-11T07:22:50.885Z,37.00
2019-04-11T07:25:52.163Z,41.25
2019-04-11T07:28:46.596Z,40.28
2019-04-11T07:31:48.343Z,39.00
2019-04-11T07:34:39.224Z,46.35
2019-04-11T07:37:26.349Z,41.73
2019-04-11T07:40:24.205Z,44.20
2019-04-11T07:43:19.912Z,36.60
2019-04-11T07:46:24.975Z,40.23
2019-04-11T07:49:02.245Z,36.47
2019-04-11T07:51:36.504Z,43.52
2019-04-11T07:54:09.294Z,38.00
2019-04-11T07:57:04.019Z,41.77
2019-04-11T07:59:53.371Z,41.53
2019-04-11T08:02:41.898Z,49.42
2019-04-11T08:05:30.605Z,42.20
2019-04-11T08:08:25.751Z,41.77
2019-04-11T08:11:03.014Z,36.87
2019-04-11T08:13:38.809Z,42.60
2019-04-11T08:16:28.941Z,42.03
2019-04-11T08:19:26.849Z,46.00
2019-04-11T08:22:16.921Z,39.97
2019-04-11T08:24:56.505Z,43.80
2019-04-11T08:27:48.470Z,44.98
2019-04-11T08:30:08.713Z,41.33
2019-04-11T08:32:56.314Z,45.73
2019-04-11T08:35:53.439Z,51.20
2019-04-11T08:38:32.185Z,41.33
2019-04-11T08:41:42.038Z,44.23
2019-04-11T08:44:19.852Z,44.13
2019-04-11T08:46:54.166Z,39.97
2019-04-11T08:49:32.195Z,39.03
2019-04-11T08:52:08.219Z,43.42
2019-04-11T08:54:55.713Z,38.83
2019-04-11T08:57:42.606Z,33.40
2019-04-11T09:00:49.086Z,35.63
2019-04-11T09:03:31.531Z,35.60
2019-04-11T09:06:16.702Z,40.83
2019-04-11T09:09:11.175Z,36.88
2019-04-11T09:12:06.990Z,45.70
2019-04-11T09:15:02.535Z,39.10
2019-04-11T09:17:36.663Z,43.25
2019-04-11T09:20:41.564Z,42.83
2019-04-11T09:23:13.689Z,40.73
2019-04-11T09:26:01.730Z,45.33
2019-04-11T09:28:49.825Z,42.07
2019-04-11T09:31:41.973Z,46.40
2019-04-11T09:34:33.606Z,47.40
2019-04-11T09:37:35.839Z,47.08
2019-04-11T09:40:26.602Z,43.23
2019-04-11T09:43:16.274Z,44.47
2019-04-11T09:46:12.380Z,45.43
2019-04-11T09:48:53.582Z,50.73
2019-04-11T09:51:52.005Z,52.20
2019-04-11T09:54:37.788Z,47.25
2019-04-11T09:57:24.760Z,49.55
2019-04-11T10:00:22.926Z,62.43
2019-04-11T10:03:11.668Z,48.90
2019-04-11T10:05:50.312Z,49.55
2019-04-11T10:08:43.652Z,44.47
2019-04-11T10:11:36.335Z,47.90
2019-04-11T10:14:15.575Z,52.17
2019-04-11T10:17:04.548Z,47.93
2019-04-11T10:19:58.554Z,52.20
2019-04-11T10:22:45.945Z,53.93
2019-04-11T10:25:28.432Z,57.22
2019-04-11T10:28:19.998Z,61.03
2019-04-11T10:31:10.667Z,64.97
2019-04-11T10:34:09.520Z,74.37
2019-04-11T10:36:53.669Z,58.03
2019-04-11T10:39:54.106Z,49.93
2019-04-11T10:42:26.640Z,42.60
2019-04-11T10:45:25.046Z,45.63
2019-04-11T10:48:09.629Z,40.10
2019-04-11T10:51:04.573Z,44.13
2019-04-11T10:53:35.381Z,49.23
2019-04-11T10:56:26.362Z,45.40
2019-04-11T10:58:57.968Z,47.07
2019-04-11T11:02:00.280Z,43.15
2019-04-11T11:04:48.561Z,46.23
2019-04-11T11:07:21.615Z,42.00
2019-04-11T11:09:58.965Z,49.57
2019-04-11T11:12:54.766Z,48.17
2019-04-11T11:15:27.508Z,50.30
2019-04-11T11:19:07.517Z,46.13
2019-04-11T11:21:02.605Z,45.43
2019-04-11T11:24:05.457Z,44.87
2019-04-11T11:26:35.572Z,45.73
2019-04-11T11:29:24.315Z,45.70
2019-04-11T11:32:03.178Z,47.00
2019-04-11T11:34:40.991Z,53.20
2019-04-11T11:37:29.164Z,59.47
2019-04-11T11:40:17.976Z,48.60
2019-04-11T11:43:06.544Z,70.75
2019-04-11T11:46:04.435Z,47.00
2019-04-11T11:48:52.229Z,52.53
2019-04-11T11:51:29.247Z,63.50
2019-04-11T11:54:05.159Z,49.83
2019-04-11T11:56:38.119Z,131.82
2019-04-11T11:59:18.316Z,55.20
2019-04-11T12:01:52.749Z,62.05
2019-04-11T12:04:42.237Z,64.73
2019-04-11T12:07:14.419Z,60.77
2019-04-11T12:10:13.248Z,52.23
2019-04-11T12:13:05.862Z,48.07
2019-04-11T12:15:53.236Z,60.92
2019-04-11T12:18:48.603Z,60.50
2019-04-11T12:21:26.046Z,53.65
2019-04-11T12:24:13.459Z,61.10
2019-04-11T12:26:51.778Z,55.23
2019-04-11T12:29:49.020Z,64.50
2019-04-11T12:32:22.422Z,61.73
2019-04-11T12:35:21.939Z,62.03
2019-04-11T12:37:57.853Z,60.13
2019-04-11T12:40:45.355Z,66.90
2019-04-11T12:43:15.844Z,65.90
2019-04-11T12:46:03.007Z,62.87
2019-04-11T12:48:37.855Z,63.47
2019-04-11T12:51:36.870Z,62.47
2019-04-11T12:54:22.125Z,62.55
2019-04-11T12:57:16.264Z,68.30
2019-04-11T12:59:46.681Z,76.43
2019-04-11T13:02:36.432Z,61.70
2019-04-11T13:05:09.718Z,64.12
2019-04-11T13:08:06.996Z,62.75
2019-04-11T13:10:39.622Z,61.57
2019-04-11T13:13:27.985Z,69.20
2019-04-11T13:16:12.325Z,70.93
2019-04-11T13:19:04.244Z,67.87
2019-04-11T13:22:02.536Z,65.70
2019-04-11T13:24:50.874Z,60.77
2019-04-11T13:27:30.168Z,61.07
2019-04-11T13:30:20.704Z,61.20
2019-04-11T13:33:01.753Z,74.32
2019-04-11T13:35:56.109Z,61.65
2019-04-11T13:38:30.378Z,57.70
2019-04-11T13:41:20.370Z,69.77
2019-04-11T13:44:23.271Z,65.92
2019-04-11T13:47:25.712Z,66.73
2019-04-11T13:49:57.759Z,63.65
2019-04-11T13:52:46.814Z,66.05
2019-04-11T13:55:27.966Z,70.83
2019-04-11T13:58:17.779Z,64.47
2019-04-11T14:00:51.552Z,64.22
2019-04-11T14:03:49.987Z,63.20
2019-04-11T14:06:31.799Z,67.43
2019-04-11T14:09:22.977Z,66.75
2019-04-11T14:12:04.741Z,64.20
2019-04-11T14:14:56.423Z,61.45
2019-04-11T14:17:44.238Z,69.07
2019-04-11T14:20:29.460Z,61.43
2019-04-11T14:23:24.460Z,63.60
2019-04-11T14:26:15.089Z,80.40
2019-04-11T14:29:09.617Z,66.07
2019-04-11T14:31:54.716Z,63.93
2019-04-11T14:34:42.356Z,61.83
2019-04-11T14:37:38.073Z,57.50
2019-04-11T14:40:11.414Z,65.93
2019-04-11T14:43:02.887Z,63.70
2019-04-11T14:45:55.885Z,67.63
2019-04-11T14:48:42.556Z,78.17
2019-04-11T14:51:43.990Z,66.90
2019-04-11T14:54:19.560Z,64.67
2019-04-11T14:56:56.950Z,61.10
2019-04-11T14:59:34.508Z,60.87
2019-04-11T15:02:27.650Z,65.70
2019-04-11T15:05:13.812Z,65.23
2019-04-11T15:07:46.085Z,67.73
2019-04-11T15:10:39.145Z,69.65
2019-04-11T15:13:09.968Z,70.00
2019-04-11T15:15:58.469Z,65.73
2019-04-11T15:18:31.544Z,68.27
2019-04-11T15:21:21.571Z,62.70
2019-04-11T15:23:53.807Z,72.87
2019-04-11T15:26:57.109Z,69.93
2019-04-11T15:29:30.544Z,69.37
2019-04-11T15:32:17.835Z,67.23
2019-04-11T15:34:53.216Z,66.80
2019-04-11T15:37:47.508Z,65.70
2019-04-11T15:40:29.144Z,68.90
2019-04-11T15:43:17.253Z,72.20
2019-04-11T15:45:57.640Z,71.17
2019-04-11T15:49:01.358Z,78.03
2019-04-11T15:51:38.255Z,67.20
2019-04-11T15:54:27.248Z,71.67
2019-04-11T15:57:28.171Z,77.00
2019-04-11T16:00:16.687Z,71.10
2019-04-11T16:02:49.549Z,66.72
2019-04-11T16:05:49.810Z,76.17
2019-04-11T16:08:44.485Z,79.40
2019-04-11T16:11:42.223Z,70.83
2019-04-11T16:14:19.825Z,66.20
2019-04-11T16:17:13.850Z,72.27
2019-04-11T16:19:54.796Z,72.33
2019-04-11T16:22:43.394Z,73.90
2019-04-11T16:25:18.197Z,76.70
2019-04-11T16:28:07.795Z,78.87
2019-04-11T16:31:02.217Z,73.23
2019-04-11T16:33:54.556Z,85.73
2019-04-11T16:36:43.403Z,75.10
2019-04-11T16:39:33.070Z,81.50
2019-04-11T16:42:13.944Z,70.83
2019-04-11T16:45:01.738Z,71.37
2019-04-11T16:47:59.541Z,69.33
2019-04-11T16:50:30.110Z,63.78
2019-04-11T16:53:01.392Z,70.70
2019-04-11T16:55:33.379Z,62.85
2019-04-11T16:58:05.363Z,65.80
2019-04-11T17:00:38.461Z,72.15
2019-04-11T17:03:10.166Z,65.30
2019-04-11T17:05:43.011Z,63.77
2019-04-11T17:08:32.513Z,64.53
2019-04-11T17:11:12.807Z,63.53
2019-04-11T17:13:42.260Z,64.13
2019-04-11T17:16:13.504Z,59.30
2019-04-11T17:18:43.169Z,69.53
2019-04-11T17:21:12.552Z,67.33
2019-04-11T17:23:41.996Z,63.63
2019-04-11T17:26:11.970Z,65.30
2019-04-11T17:28:43.347Z,61.03
2019-04-11T17:31:12.399Z,69.43
2019-04-11T17:33:42.068Z,65.63
2019-04-11T17:36:12.243Z,65.33
2019-04-11T17:38:41.934Z,60.57
2019-04-11T17:41:12.113Z,67.23
2019-04-11T17:43:46.786Z,70.83
2019-04-11T17:46:16.607Z,68.87
2019-04-11T17:48:46.260Z,70.40
2019-04-11T17:51:16.215Z,67.30
2019-04-11T17:53:45.672Z,68.10
2019-04-11T17:56:16.877Z,79.30
2019-04-11T17:58:46.196Z,74.43
2019-04-11T18:01:16.325Z,65.70
2019-04-11T18:03:46.284Z,64.17
2019-04-11T18:06:17.213Z,67.42
2019-04-11T18:08:51.319Z,61.40
2019-04-11T18:11:18.532Z,63.50
2019-04-11T18:13:47.918Z,67.87
2019-04-11T18:16:18.570Z,53.67
2019-04-11T18:18:47.956Z,51.57
2019-04-11T18:21:18.137Z,54.50
2019-04-11T18:23:49.888Z,60.77
2019-04-11T18:26:19.044Z,54.10
2019-04-11T18:28:51.826Z,57.40
2019-04-11T18:31:24.752Z,49.97
2019-04-11T18:33:51.750Z,60.23
2019-04-11T18:36:21.133Z,61.33
2019-04-11T18:38:50.524Z,54.50
2019-04-11T18:41:20.041Z,57.90
2019-04-11T18:43:53.110Z,57.20
2019-04-11T18:46:22.547Z,53.23
2019-04-11T18:48:54.514Z,56.43
2019-04-11T18:51:23.813Z,52.87
2019-04-11T18:53:53.219Z,53.30
2019-04-11T18:56:22.646Z,55.53
2019-04-11T18:58:52.266Z,55.38
2019-04-11T19:01:21.760Z,53.37
2019-04-11T19:03:51.165Z,56.50
2019-04-11T19:06:27.820Z,53.30
2019-04-11T19:08:51.652Z,49.63
2019-04-11T19:11:21.192Z,51.30
2019-04-11T19:13:55.780Z,48.83
2019-04-11T19:16:25.551Z,48.60
2019-04-11T19:18:54.889Z,50.77
2019-04-11T19:21:24.481Z,45.27
2019-04-11T19:23:54.731Z,55.10
2019-04-11T19:26:24.246Z,51.93
2019-04-11T19:28:55.235Z,47.87
2019-04-11T19:31:27.467Z,48.45
2019-04-11T19:33:56.465Z,47.17
2019-04-11T19:36:26.277Z,49.10
2019-04-11T19:38:55.969Z,48.00
2019-04-11T19:41:25.542Z,47.90
2019-04-11T19:43:54.966Z,47.60
2019-04-11T19:46:25.237Z,51.70
2019-04-11T19:48:57.068Z,54.33
2019-04-11T19:51:28.513Z,47.73
2019-04-11T19:53:57.118Z,47.73
2019-04-11T19:56:34.622Z,46.30
2019-04-11T19:59:04.573Z,48.65
2019-04-11T20:01:34.062Z,49.53
2019-04-11T20:04:05.712Z,49.10
2019-04-11T20:06:35.128Z,50.70
2019-04-11T20:09:06.351Z,53.50
2019-04-11T20:11:36.483Z,45.80
2019-04-11T20:14:07.903Z,49.20
2019-04-11T20:16:42.045Z,44.73
2019-04-11T20:19:11.484Z,47.30
2019-04-11T20:21:40.821Z,54.10
2019-04-11T20:24:14.118Z,56.80
2019-04-11T20:26:41.792Z,47.83
2019-04-11T20:29:11.194Z,50.90
2019-04-11T20:31:40.571Z,50.27
2019-04-11T20:34:10.013Z,49.57
2019-04-11T20:36:41.296Z,51.27
2019-04-11T20:39:14.962Z,48.33
2019-04-11T20:41:42.716Z,53.17
2019-04-11T20:44:12.142Z,47.85
2019-04-11T20:46:41.676Z,48.10
2019-04-11T20:49:12.180Z,50.43
2019-04-11T20:51:42.213Z,46.90
2019-04-11T20:54:12.135Z,46.50
2019-04-11T20:56:42.191Z,48.93
2019-04-11T20:59:12.495Z,46.60
2019-04-11T21:01:41.886Z,48.53
2019-04-11T21:04:14.689Z,48.90
2019-04-11T21:06:44.281Z,48.33
2019-04-11T21:09:14.680Z,53.30
2019-04-11T21:11:48.089Z,46.67
2019-04-11T21:14:18.030Z,45.60
2019-04-11T21:16:47.424Z,46.33
2019-04-11T21:19:20.409Z,41.75
2019-04-11T21:21:49.817Z,50.03
2019-04-11T21:24:19.184Z,54.73
2019-04-11T21:26:52.246Z,48.10
2019-04-11T21:29:22.383Z,46.28
2019-04-11T21:31:51.711Z,46.47
2019-04-11T21:34:23.441Z,49.25
2019-04-11T21:36:52.781Z,42.93
2019-04-11T21:39:23.207Z,44.90
2019-04-11T21:41:53.427Z,52.13
2019-04-11T21:44:23.743Z,47.67
2019-04-11T21:46:53.664Z,49.38
2019-04-11T21:49:25.452Z,51.50
2019-04-11T21:51:55.080Z,51.00
2019-04-11T21:54:24.444Z,49.60
2019-04-11T21:56:54.148Z,59.73
2019-04-11T21:59:23.571Z,51.13
2019-04-11T22:01:54.133Z,56.87
2019-04-11T22:04:26.949Z,50.77
2019-04-11T22:07:00.677Z,48.77
2019-04-11T22:09:28.465Z,47.43
2019-04-11T22:11:58.960Z,53.37
2019-04-11T22:14:28.373Z,46.40
2019-04-11T22:17:00.125Z,49.40
2019-04-11T22:19:29.559Z,51.13
2019-04-11T22:21:58.948Z,50.43
2019-04-11T22:24:28.353Z,47.80
2019-04-11T22:26:57.981Z,47.40
2019-04-11T22:29:27.467Z,55.23
2019-04-11T22:31:56.932Z,63.50
2019-04-11T22:34:37.128Z,50.65
2019-04-11T22:37:07.327Z,53.97
2019-04-11T22:39:36.625Z,49.23
2019-04-11T22:42:07.252Z,55.53
2019-04-11T22:44:38.640Z,55.97
2019-04-11T22:47:08.663Z,52.77
2019-04-11T22:49:39.472Z,46.50
2019-04-11T22:52:11.392Z,49.60
2019-04-11T22:54:42.052Z,45.30
2019-04-11T22:57:12.963Z,43.43
2019-04-11T22:59:45.048Z,42.40
2019-04-11T23:02:24.398Z,47.03
2019-04-11T23:04:54.893Z,45.17
2019-04-11T23:07:25.468Z,47.90
2019-04-11T23:09:55.426Z,44.30
2019-04-11T23:12:24.852Z,42.30
2019-04-11T23:14:55.063Z,39.27
2019-04-11T23:17:24.404Z,43.10
2019-04-11T23:19:59.986Z,44.87
2019-04-11T23:22:29.862Z,42.50
2019-04-11T23:24:59.869Z,56.43
2019-04-11T23:27:29.632Z,44.13
2019-04-11T23:30:00.010Z,43.07
2019-04-11T23:32:30.249Z,42.00
2019-04-11T23:34:59.605Z,41.03
2019-04-11T23:37:30.565Z,42.17
2019-04-11T23:40:00.620Z,47.53
2019-04-11T23:42:31.072Z,41.10
2019-04-11T23:45:03.309Z,41.87
2019-04-11T23:47:32.701Z,44.70
2019-04-11T23:50:02.604Z,44.63
2019-04-11T23:52:31.959Z,41.40
2019-04-11T23:55:01.428Z,43.40
2019-04-11T23:57:31.303Z,41.50
